sensor_id;sensor_type;location;lat;lon;timestamp;pressure;altitude;pressure_sealevel;temperature;humidity
39295;BME280;52361;52.100;5.248;2023-04-09T00:00:40;102563.00000000001;;;11.29;100.0
39295;BME280;52361;52.100;5.248;2023-04-09T00:02:17;102558.0;;;11.26;100.0
39295;BME280;52361;52.100;5.248;2023-04-09T00:03:54;102563.00000000001;;;11.36;100.0
39295;BME280;52361;52.100;5.248;2023-04-09T00:05:30;102557.0;;;11.33;100.0
39295;BME280;52361;52.100;5.248;2023-04-09T00:08:43;102557.0;;;11.25;100.0
39295;BME280;52361;52.100;5.248;2023-04-09T00:10:19;102558.0;;;11.26;100.0
39295;BME280;52361;52.100;5.248;2023-04-09T00:11:56;102553.0;;;11.33;100.0
39295;BME280;52361;52.100;5.248;2023-04-09T00:15:10;102556.0;;;11.37;100.0
39295;BME280;52361;52.100;5.248;2023-04-09T00:16:46;102558.0;;;11.44;100.0
39295;BME280;52361;52.100;5.248;2023-04-09T00:18:23;102554.0;;;11.43;100.0
39295;BME280;52361;52.100;5.248;2023-04-09T00:21:36;102555.0;;;11.35;100.0
39295;BME280;52361;52.100;5.248;2023-04-09T00:23:12;102556.0;;;11.27;100.0
39295;BME280;52361;52.100;5.248;2023-04-09T00:24:48;102555.0;;;11.22;100.0
39295;BME280;52361;52.100;5.248;2023-04-09T00:26:25;102553.0;;;11.28;100.0
39295;BME280;52361;52.100;5.248;2023-04-09T00:29:38;102552.0;;;11.44;100.0
39295;BME280;52361;52.100;5.248;2023-04-09T00:31:14;102551.0;;;11.47;100.0
39295;BME280;52361;52.100;5.248;2023-04-09T00:32:50;102551.0;;;11.46;100.0
39295;BME280;52361;52.100;5.248;2023-04-09T00:36:03;102543.0;;;11.54;100.0
39295;BME280;52361;52.100;5.248;2023-04-09T00:37:40;102541.00000000001;;;11.56;100.0
39295;BME280;52361;52.100;5.248;2023-04-09T00:39:17;102544.0;;;11.51;100.0
39295;BME280;52361;52.100;5.248;2023-04-09T00:42:30;102545.0;;;11.49;100.0
39295;BME280;52361;52.100;5.248;2023-04-09T00:44:07;102536.99999999999;;;11.57;100.0
39295;BME280;52361;52.100;5.248;2023-04-09T00:45:43;102539.00000000001;;;11.54;100.0
39295;BME280;52361;52.100;5.248;2023-04-09T00:47:20;102533.99999999999;;;11.46;100.0
39295;BME280;52361;52.100;5.248;2023-04-09T00:50:33;102532.0;;;11.62;100.0
39295;BME280;52361;52.100;5.248;2023-04-09T00:52:10;102536.99999999999;;;11.64;100.0
39295;BME280;52361;52.100;5.248;2023-04-09T00:53:47;102529.0;;;11.55;100.0
39295;BME280;52361;52.100;5.248;2023-04-09T00:57:00;102528.0;;;11.53;100.0
39295;BME280;52361;52.100;5.248;2023-04-09T00:58:36;102528.0;;;11.53;100.0
39295;BME280;52361;52.100;5.248;2023-04-09T01:00:13;102527.0;;;11.55;100.0
39295;BME280;52361;52.100;5.248;2023-04-09T01:03:26;102524.0;;;11.61;100.0
39295;BME280;52361;52.100;5.248;2023-04-09T01:05:04;102526.0;;;11.59;100.0
39295;BME280;52361;52.100;5.248;2023-04-09T01:06:46;102525.0;;;11.7;100.0
39295;BME280;52361;52.100;5.248;2023-04-09T01:08:31;102520.0;;;11.69;100.0
39295;BME280;52361;52.100;5.248;2023-04-09T01:12:10;102520.0;;;11.64;100.0
39295;BME280;52361;52.100;5.248;2023-04-09T01:13:54;102519.0;;;11.67;100.0
39295;BME280;52361;52.100;5.248;2023-04-09T01:15:43;102523.0;;;11.57;100.0
39295;BME280;52361;52.100;5.248;2023-04-09T01:17:30;102520.0;;;11.52;100.0
39295;BME280;52361;52.100;5.248;2023-04-09T01:19:20;102517.0;;;11.48;100.0
39295;BME280;52361;52.100;5.248;2023-04-09T01:21:11;102509.99999999999;;;11.61;100.0
39295;BME280;52361;52.100;5.248;2023-04-09T01:24:47;102514.00000000001;;;11.65;100.0
39295;BME280;52361;52.100;5.248;2023-04-09T01:26:40;102511.99999999999;;;11.57;100.0
39295;BME280;52361;52.100;5.248;2023-04-09T01:28:31;102509.99999999999;;;11.51;100.0
39295;BME280;52361;52.100;5.248;2023-04-09T01:30:10;102514.00000000001;;;11.54;100.0
39295;BME280;52361;52.100;5.248;2023-04-09T01:31:51;102507.0;;;11.56;100.0
39295;BME280;52361;52.100;5.248;2023-04-09T01:33:31;102507.0;;;11.54;100.0
39295;BME280;52361;52.100;5.248;2023-04-09T01:36:49;102506.0;;;11.56;100.0
39295;BME280;52361;52.100;5.248;2023-04-09T01:38:31;102505.0;;;11.58;100.0
39295;BME280;52361;52.100;5.248;2023-04-09T01:40:10;102505.0;;;11.54;100.0
39295;BME280;52361;52.100;5.248;2023-04-09T01:41:47;102503.0;;;11.51;100.0
39295;BME280;52361;52.100;5.248;2023-04-09T01:45:04;102504.0;;;11.54;100.0
39295;BME280;52361;52.100;5.248;2023-04-09T01:46:42;102513.00000000001;;;11.48;100.0
39295;BME280;52361;52.100;5.248;2023-04-09T01:48:21;102506.0;;;11.47;100.0
39295;BME280;52361;52.100;5.248;2023-04-09T01:51:35;102506.0;;;11.48;100.0
39295;BME280;52361;52.100;5.248;2023-04-09T01:53:12;102508.99999999999;;;11.53;100.0
39295;BME280;52361;52.100;5.248;2023-04-09T01:54:48;102506.0;;;11.44;100.0
39295;BME280;52361;52.100;5.248;2023-04-09T01:56:24;102506.0;;;11.54;100.0
39295;BME280;52361;52.100;5.248;2023-04-09T01:59:38;102502.0;;;11.54;100.0
39295;BME280;52361;52.100;5.248;2023-04-09T02:01:19;102503.0;;;11.52;100.0
39295;BME280;52361;52.100;5.248;2023-04-09T02:03:03;102506.0;;;11.48;100.0
39295;BME280;52361;52.100;5.248;2023-04-09T02:04:46;102506.0;;;11.53;100.0
39295;BME280;52361;52.100;5.248;2023-04-09T02:08:11;102506.0;;;11.47;100.0
39295;BME280;52361;52.100;5.248;2023-04-09T02:09:52;102504.0;;;11.44;100.0
39295;BME280;52361;52.100;5.248;2023-04-09T02:11:31;102503.0;;;11.48;100.0
39295;BME280;52361;52.100;5.248;2023-04-09T02:13:12;102501.0;;;11.53;100.0
39295;BME280;52361;52.100;5.248;2023-04-09T02:16:30;102499.0;;;11.46;100.0
39295;BME280;52361;52.100;5.248;2023-04-09T02:18:20;102496.0;;;11.48;100.0
39295;BME280;52361;52.100;5.248;2023-04-09T02:19:56;102497.0;;;11.4;100.0
39295;BME280;52361;52.100;5.248;2023-04-09T02:21:33;102496.0;;;11.38;100.0
39295;BME280;52361;52.100;5.248;2023-04-09T02:24:46;102497.0;;;11.52;100.0
39295;BME280;52361;52.100;5.248;2023-04-09T02:26:23;102493.0;;;11.57;100.0
39295;BME280;52361;52.100;5.248;2023-04-09T02:27:59;102488.00000000001;;;11.6;100.0
39295;BME280;52361;52.100;5.248;2023-04-09T02:31:14;102491.00000000001;;;11.64;100.0
39295;BME280;52361;52.100;5.248;2023-04-09T02:32:51;102486.99999999999;;;11.6;100.0
39295;BME280;52361;52.100;5.248;2023-04-09T02:34:27;102489.00000000001;;;11.55;100.0
39295;BME280;52361;52.100;5.248;2023-04-09T02:37:40;102488.00000000001;;;11.51;100.0
39295;BME280;52361;52.100;5.248;2023-04-09T02:39:16;102484.99999999999;;;11.47;100.0
39295;BME280;52361;52.100;5.248;2023-04-09T02:40:53;102484.99999999999;;;11.4;100.0
39295;BME280;52361;52.100;5.248;2023-04-09T02:42:30;102490.00000000001;;;11.37;100.0
39295;BME280;52361;52.100;5.248;2023-04-09T02:45:42;102484.99999999999;;;11.39;100.0
39295;BME280;52361;52.100;5.248;2023-04-09T02:47:18;102484.99999999999;;;11.49;100.0
39295;BME280;52361;52.100;5.248;2023-04-09T02:48:54;102479.0;;;11.42;100.0
39295;BME280;52361;52.100;5.248;2023-04-09T02:52:08;102479.0;;;11.35;100.0
39295;BME280;52361;52.100;5.248;2023-04-09T02:53:45;102478.0;;;11.3;100.0
39295;BME280;52361;52.100;5.248;2023-04-09T02:55:21;102478.0;;;11.39;100.0
39295;BME280;52361;52.100;5.248;2023-04-09T02:58:34;102474.0;;;11.45;100.0
39295;BME280;52361;52.100;5.248;2023-04-09T03:00:11;102473.0;;;11.54;100.0
39295;BME280;52361;52.100;5.248;2023-04-09T03:01:47;102477.0;;;11.52;100.0
39295;BME280;52361;52.100;5.248;2023-04-09T03:03:23;102472.0;;;11.45;100.0
39295;BME280;52361;52.100;5.248;2023-04-09T03:06:36;102472.0;;;11.5;100.0
39295;BME280;52361;52.100;5.248;2023-04-09T03:08:12;102476.0;;;11.53;100.0
39295;BME280;52361;52.100;5.248;2023-04-09T03:09:48;102472.0;;;11.55;100.0
39295;BME280;52361;52.100;5.248;2023-04-09T03:13:01;102472.0;;;11.49;100.0
39295;BME280;52361;52.100;5.248;2023-04-09T03:14:38;102472.0;;;11.49;100.0
39295;BME280;52361;52.100;5.248;2023-04-09T03:16:15;102466.00000000001;;;11.54;100.0
39295;BME280;52361;52.100;5.248;2023-04-09T03:19:27;102466.00000000001;;;11.42;100.0
39295;BME280;52361;52.100;5.248;2023-04-09T03:21:05;102463.00000000001;;;11.58;100.0
39295;BME280;52361;52.100;5.248;2023-04-09T03:22:42;102458.99999999999;;;11.61;100.0
39295;BME280;52361;52.100;5.248;2023-04-09T03:24:19;102464.00000000001;;;11.44;100.0
39295;BME280;52361;52.100;5.248;2023-04-09T03:27:37;102465.00000000001;;;11.56;100.0
39295;BME280;52361;52.100;5.248;2023-04-09T03:29:13;102455.0;;;11.52;100.0
39295;BME280;52361;52.100;5.248;2023-04-09T03:30:49;102455.0;;;11.54;100.0
39295;BME280;52361;52.100;5.248;2023-04-09T03:34:01;102453.0;;;11.43;100.0
39295;BME280;52361;52.100;5.248;2023-04-09T03:35:37;102451.0;;;11.35;100.0
39295;BME280;52361;52.100;5.248;2023-04-09T03:37:13;102453.0;;;11.44;100.0
39295;BME280;52361;52.100;5.248;2023-04-09T03:40:26;102452.0;;;11.34;100.0
39295;BME280;52361;52.100;5.248;2023-04-09T03:42:02;102451.0;;;11.45;100.0
39295;BME280;52361;52.100;5.248;2023-04-09T03:43:39;102457.0;;;11.5;100.0
39295;BME280;52361;52.100;5.248;2023-04-09T03:45:15;102452.0;;;11.52;100.0
39295;BME280;52361;52.100;5.248;2023-04-09T03:48:27;102455.0;;;11.48;100.0
39295;BME280;52361;52.100;5.248;2023-04-09T03:50:04;102452.0;;;11.48;100.0
39295;BME280;52361;52.100;5.248;2023-04-09T03:51:40;102451.0;;;11.38;100.0
39295;BME280;52361;52.100;5.248;2023-04-09T03:54:53;102448.0;;;11.39;100.0
39295;BME280;52361;52.100;5.248;2023-04-09T03:56:29;102447.0;;;11.37;100.0
39295;BME280;52361;52.100;5.248;2023-04-09T03:58:06;102445.0;;;11.41;100.0
39295;BME280;52361;52.100;5.248;2023-04-09T04:01:19;102445.0;;;11.45;100.0
39295;BME280;52361;52.100;5.248;2023-04-09T04:02:56;102445.0;;;11.49;100.0
39295;BME280;52361;52.100;5.248;2023-04-09T04:04:32;102443.0;;;11.45;100.0
39295;BME280;52361;52.100;5.248;2023-04-09T04:06:08;102445.0;;;11.39;100.0
39295;BME280;52361;52.100;5.248;2023-04-09T04:09:20;102446.0;;;11.29;100.0
39295;BME280;52361;52.100;5.248;2023-04-09T04:11:02;102442.0;;;11.4;100.0
39295;BME280;52361;52.100;5.248;2023-04-09T04:12:38;102441.00000000001;;;11.37;100.0
39295;BME280;52361;52.100;5.248;2023-04-09T04:15:52;102440.00000000001;;;11.42;100.0
39295;BME280;52361;52.100;5.248;2023-04-09T04:17:28;102440.00000000001;;;11.58;100.0
39295;BME280;52361;52.100;5.248;2023-04-09T04:19:05;102433.99999999999;;;11.4;100.0
39295;BME280;52361;52.100;5.248;2023-04-09T04:20:42;102438.00000000001;;;11.52;100.0
39295;BME280;52361;52.100;5.248;2023-04-09T04:23:54;102439.00000000001;;;11.44;100.0
39295;BME280;52361;52.100;5.248;2023-04-09T04:25:30;102436.99999999999;;;11.5;100.0
39295;BME280;52361;52.100;5.248;2023-04-09T04:27:06;102436.99999999999;;;11.63;100.0
39295;BME280;52361;52.100;5.248;2023-04-09T04:30:19;102429.0;;;11.56;100.0
39295;BME280;52361;52.100;5.248;2023-04-09T04:31:56;102429.0;;;11.56;100.0
39295;BME280;52361;52.100;5.248;2023-04-09T04:33:33;102431.0;;;11.64;100.0
39295;BME280;52361;52.100;5.248;2023-04-09T04:36:45;102428.0;;;11.45;100.0
39295;BME280;52361;52.100;5.248;2023-04-09T04:38:21;102433.0;;;11.47;100.0
39295;BME280;52361;52.100;5.248;2023-04-09T04:39:59;102433.99999999999;;;11.48;100.0
39295;BME280;52361;52.100;5.248;2023-04-09T04:43:13;102433.0;;;11.55;100.0
39295;BME280;52361;52.100;5.248;2023-04-09T04:44:49;102433.0;;;11.39;100.0
39295;BME280;52361;52.100;5.248;2023-04-09T04:46:25;102433.0;;;11.47;100.0
39295;BME280;52361;52.100;5.248;2023-04-09T04:48:02;102433.0;;;11.39;100.0
39295;BME280;52361;52.100;5.248;2023-04-09T04:51:15;102433.99999999999;;;11.42;100.0
39295;BME280;52361;52.100;5.248;2023-04-09T04:52:52;102431.0;;;11.36;100.0
39295;BME280;52361;52.100;5.248;2023-04-09T04:54:28;102433.0;;;11.44;100.0
39295;BME280;52361;52.100;5.248;2023-04-09T04:57:40;102432.0;;;11.46;100.0
39295;BME280;52361;52.100;5.248;2023-04-09T04:59:16;102430.0;;;11.54;100.0
39295;BME280;52361;52.100;5.248;2023-04-09T05:00:52;102430.0;;;11.48;100.0
39295;BME280;52361;52.100;5.248;2023-04-09T05:04:05;102428.0;;;11.38;100.0
39295;BME280;52361;52.100;5.248;2023-04-09T05:05:41;102430.0;;;11.54;100.0
39295;BME280;52361;52.100;5.248;2023-04-09T05:07:17;102429.0;;;11.34;100.0
39295;BME280;52361;52.100;5.248;2023-04-09T05:08:53;102429.0;;;11.44;100.0
39295;BME280;52361;52.100;5.248;2023-04-09T05:12:05;102431.0;;;11.45;100.0
39295;BME280;52361;52.100;5.248;2023-04-09T05:13:42;102426.0;;;11.35;100.0
39295;BME280;52361;52.100;5.248;2023-04-09T05:15:18;102428.0;;;11.45;100.0
39295;BME280;52361;52.100;5.248;2023-04-09T05:18:31;102426.0;;;11.45;100.0
39295;BME280;52361;52.100;5.248;2023-04-09T05:20:08;102430.0;;;11.33;100.0
39295;BME280;52361;52.100;5.248;2023-04-09T05:21:45;102428.0;;;11.35;100.0
39295;BME280;52361;52.100;5.248;2023-04-09T05:24:57;102429.0;;;11.27;100.0
39295;BME280;52361;52.100;5.248;2023-04-09T05:26:33;102431.0;;;11.42;100.0
39295;BME280;52361;52.100;5.248;2023-04-09T05:28:09;102434.99999999999;;;11.47;100.0
39295;BME280;52361;52.100;5.248;2023-04-09T05:29:46;102442.0;;;11.51;100.0
39295;BME280;52361;52.100;5.248;2023-04-09T05:32:59;102442.0;;;11.62;100.0
39295;BME280;52361;52.100;5.248;2023-04-09T05:34:35;102447.0;;;11.16;100.0
39295;BME280;52361;52.100;5.248;2023-04-09T05:36:14;102445.0;;;11.36;100.0
39295;BME280;52361;52.100;5.248;2023-04-09T05:39:27;102442.0;;;11.32;100.0
39295;BME280;52361;52.100;5.248;2023-04-09T05:41:04;102443.0;;;11.16;100.0
39295;BME280;52361;52.100;5.248;2023-04-09T05:42:39;102442.0;;;11.23;100.0
39295;BME280;52361;52.100;5.248;2023-04-09T05:45:52;102443.0;;;11.31;100.0
39295;BME280;52361;52.100;5.248;2023-04-09T05:47:29;102442.0;;;11.36;100.0
39295;BME280;52361;52.100;5.248;2023-04-09T05:49:05;102445.0;;;11.23;100.0
39295;BME280;52361;52.100;5.248;2023-04-09T05:50:41;102444.0;;;11.33;100.0
39295;BME280;52361;52.100;5.248;2023-04-09T05:54:01;102448.0;;;11.35;100.0
39295;BME280;52361;52.100;5.248;2023-04-09T05:55:38;102455.0;;;11.14;100.0
39295;BME280;52361;52.100;5.248;2023-04-09T05:57:14;102452.0;;;11.44;100.0
39295;BME280;52361;52.100;5.248;2023-04-09T06:00:26;102453.0;;;11.22;100.0
39295;BME280;52361;52.100;5.248;2023-04-09T06:02:04;102455.0;;;11.44;99.86
39295;BME280;52361;52.100;5.248;2023-04-09T06:03:40;102453.0;;;11.35;99.66
39295;BME280;52361;52.100;5.248;2023-04-09T06:05:17;102456.0;;;11.1;99.63
39295;BME280;52361;52.100;5.248;2023-04-09T06:08:30;102458.99999999999;;;11.18;99.86
39295;BME280;52361;52.100;5.248;2023-04-09T06:10:07;102457.0;;;11.23;99.62
39295;BME280;52361;52.100;5.248;2023-04-09T06:11:44;102451.0;;;11.39;98.38
39295;BME280;52361;52.100;5.248;2023-04-09T06:14:56;102458.0;;;11.43;98.23
39295;BME280;52361;52.100;5.248;2023-04-09T06:16:32;102455.0;;;11.44;98.09
39295;BME280;52361;52.100;5.248;2023-04-09T06:18:09;102458.0;;;11.46;98.12
39295;BME280;52361;52.100;5.248;2023-04-09T06:21:22;102459.99999999999;;;11.34;98.01
39295;BME280;52361;52.100;5.248;2023-04-09T06:22:59;102468.0;;;11.42;98.49
39295;BME280;52361;52.100;5.248;2023-04-09T06:24:35;102461.99999999999;;;11.39;98.39
39295;BME280;52361;52.100;5.248;2023-04-09T06:26:12;102467.0;;;11.39;98.49
39295;BME280;52361;52.100;5.248;2023-04-09T06:29:25;102467.0;;;11.31;98.98
39295;BME280;52361;52.100;5.248;2023-04-09T06:31:01;102469.0;;;11.2;99.88
39295;BME280;52361;52.100;5.248;2023-04-09T06:32:37;102466.00000000001;;;11.07;99.77
39295;BME280;52361;52.100;5.248;2023-04-09T06:35:49;102467.0;;;11.24;99.29
39295;BME280;52361;52.100;5.248;2023-04-09T06:37:25;102467.0;;;11.45;98.48
39295;BME280;52361;52.100;5.248;2023-04-09T06:39:02;102467.0;;;11.16;98.97
39295;BME280;52361;52.100;5.248;2023-04-09T06:42:14;102466.00000000001;;;11.51;98.21
39295;BME280;52361;52.100;5.248;2023-04-09T06:43:50;102467.0;;;11.57;98.28
39295;BME280;52361;52.100;5.248;2023-04-09T06:45:27;102469.0;;;11.66;97.45
39295;BME280;52361;52.100;5.248;2023-04-09T06:48:40;102470.0;;;11.64;96.84
39295;BME280;52361;52.100;5.248;2023-04-09T06:50:17;102467.0;;;11.67;97.29
39295;BME280;52361;52.100;5.248;2023-04-09T06:51:53;102469.0;;;11.67;97.65
39295;BME280;52361;52.100;5.248;2023-04-09T06:53:30;102470.0;;;11.69;98.87
39295;BME280;52361;52.100;5.248;2023-04-09T06:56:43;102471.0;;;11.62;99.05
39295;BME280;52361;52.100;5.248;2023-04-09T06:58:19;102467.0;;;11.72;98.27
39295;BME280;52361;52.100;5.248;2023-04-09T06:59:55;102466.00000000001;;;11.57;97.73
39295;BME280;52361;52.100;5.248;2023-04-09T07:03:08;102468.0;;;11.5;99.7
39295;BME280;52361;52.100;5.248;2023-04-09T07:04:45;102468.0;;;11.48;100.0
39295;BME280;52361;52.100;5.248;2023-04-09T07:06:21;102472.0;;;11.51;98.62
39295;BME280;52361;52.100;5.248;2023-04-09T07:09:33;102477.0;;;11.6;97.43
39295;BME280;52361;52.100;5.248;2023-04-09T07:11:09;102477.0;;;11.62;97.6
39295;BME280;52361;52.100;5.248;2023-04-09T07:12:45;102474.0;;;11.72;97.63
39295;BME280;52361;52.100;5.248;2023-04-09T07:14:21;102474.0;;;11.7;96.5
39295;BME280;52361;52.100;5.248;2023-04-09T07:17:34;102475.0;;;11.76;96.58
39295;BME280;52361;52.100;5.248;2023-04-09T07:19:11;102474.0;;;11.84;95.41
39295;BME280;52361;52.100;5.248;2023-04-09T07:20:47;102474.0;;;11.78;95.66
39295;BME280;52361;52.100;5.248;2023-04-09T07:24:02;102481.0;;;11.8;96.42
39295;BME280;52361;52.100;5.248;2023-04-09T07:25:39;102474.0;;;12.01;95.66
39295;BME280;52361;52.100;5.248;2023-04-09T07:27:15;102475.0;;;11.98;96.21
39295;BME280;52361;52.100;5.248;2023-04-09T07:30:28;102480.0;;;12.13;95.28
39295;BME280;52361;52.100;5.248;2023-04-09T07:32:04;102477.0;;;12.02;94.8
39295;BME280;52361;52.100;5.248;2023-04-09T07:33:41;102480.0;;;12.18;94.0
39295;BME280;52361;52.100;5.248;2023-04-09T07:35:18;102482.0;;;11.93;94.91
39295;BME280;52361;52.100;5.248;2023-04-09T07:38:30;102482.0;;;11.96;95.27
39295;BME280;52361;52.100;5.248;2023-04-09T07:40:07;102482.0;;;11.74;96.17
39295;BME280;52361;52.100;5.248;2023-04-09T07:41:43;102479.0;;;11.93;95.67
39295;BME280;52361;52.100;5.248;2023-04-09T07:44:56;102479.0;;;12.04;94.79
39295;BME280;52361;52.100;5.248;2023-04-09T07:46:32;102479.0;;;12.12;95.66
39295;BME280;52361;52.100;5.248;2023-04-09T07:48:08;102476.0;;;12.12;94.78
39295;BME280;52361;52.100;5.248;2023-04-09T07:51:20;102478.0;;;12.08;96.02
39295;BME280;52361;52.100;5.248;2023-04-09T07:52:56;102480.0;;;12.1;96.22
39295;BME280;52361;52.100;5.248;2023-04-09T07:54:33;102471.0;;;12.23;95.88
39295;BME280;52361;52.100;5.248;2023-04-09T07:56:10;102472.0;;;12.3;93.78
39295;BME280;52361;52.100;5.248;2023-04-09T07:59:22;102470.0;;;12.23;93.91
39295;BME280;52361;52.100;5.248;2023-04-09T08:00:58;102471.0;;;12.4;93.72
39295;BME280;52361;52.100;5.248;2023-04-09T08:02:34;102467.0;;;12.27;91.8
39295;BME280;52361;52.100;5.248;2023-04-09T08:05:47;102467.0;;;12.44;92.09
39295;BME280;52361;52.100;5.248;2023-04-09T08:07:24;102470.0;;;12.44;90.67
39295;BME280;52361;52.100;5.248;2023-04-09T08:09:00;102473.0;;;12.42;90.09
39295;BME280;52361;52.100;5.248;2023-04-09T08:12:13;102472.0;;;12.56;88.71
39295;BME280;52361;52.100;5.248;2023-04-09T08:13:50;102476.0;;;12.63;87.03
39295;BME280;52361;52.100;5.248;2023-04-09T08:15:26;102471.0;;;12.88;85.31
39295;BME280;52361;52.100;5.248;2023-04-09T08:18:39;102468.0;;;12.89;85.62
39295;BME280;52361;52.100;5.248;2023-04-09T08:20:15;102469.0;;;12.88;84.24
39295;BME280;52361;52.100;5.248;2023-04-09T08:21:51;102470.0;;;13.08;84.27
39295;BME280;52361;52.100;5.248;2023-04-09T08:23:27;102472.0;;;13.24;81.97
39295;BME280;52361;52.100;5.248;2023-04-09T08:26:41;102478.0;;;13.28;81.37
39295;BME280;52361;52.100;5.248;2023-04-09T08:28:18;102471.0;;;13.2;78.98
39295;BME280;52361;52.100;5.248;2023-04-09T08:29:54;102473.0;;;13.18;79.28
39295;BME280;52361;52.100;5.248;2023-04-09T08:33:07;102473.0;;;13.3;79.77
39295;BME280;52361;52.100;5.248;2023-04-09T08:34:43;102474.0;;;13.25;78.75
39295;BME280;52361;52.100;5.248;2023-04-09T08:36:20;102480.0;;;13.49;79.78
39295;BME280;52361;52.100;5.248;2023-04-09T08:39:34;102475.0;;;13.51;78.16
39295;BME280;52361;52.100;5.248;2023-04-09T08:41:17;102473.0;;;13.59;79.2
39295;BME280;52361;52.100;5.248;2023-04-09T08:42:54;102473.0;;;13.83;78.28
39295;BME280;52361;52.100;5.248;2023-04-09T08:44:31;102472.0;;;14.02;78.14
39295;BME280;52361;52.100;5.248;2023-04-09T08:47:46;102467.0;;;14.16;77.78
39295;BME280;52361;52.100;5.248;2023-04-09T08:49:24;102469.0;;;14.16;75.81
39295;BME280;52361;52.100;5.248;2023-04-09T08:51:00;102468.0;;;14.16;76.86
39295;BME280;52361;52.100;5.248;2023-04-09T08:54:14;102467.0;;;14.21;76.16
39295;BME280;52361;52.100;5.248;2023-04-09T08:55:51;102468.0;;;14.29;76.12
39295;BME280;52361;52.100;5.248;2023-04-09T08:57:27;102467.0;;;14.49;74.41
39295;BME280;52361;52.100;5.248;2023-04-09T08:59:03;102467.0;;;14.68;74.36
39295;BME280;52361;52.100;5.248;2023-04-09T09:02:16;102464.00000000001;;;14.84;72.45
39295;BME280;52361;52.100;5.248;2023-04-09T09:03:54;102467.0;;;15.01;71.27
39295;BME280;52361;52.100;5.248;2023-04-09T09:05:34;102467.0;;;15.25;70.13
39295;BME280;52361;52.100;5.248;2023-04-09T09:09:03;102466.00000000001;;;15.39;69.97
39295;BME280;52361;52.100;5.248;2023-04-09T09:10:42;102458.0;;;15.31;69.78
39295;BME280;52361;52.100;5.248;2023-04-09T09:12:36;102455.0;;;15.31;68.74
39295;BME280;52361;52.100;5.248;2023-04-09T09:14:15;102451.0;;;15.24;71.44
39295;BME280;52361;52.100;5.248;2023-04-09T09:15:54;102452.0;;;15.58;71.97
39295;BME280;52361;52.100;5.248;2023-04-09T09:17:52;102454.0;;;15.69;70.02
39295;BME280;52361;52.100;5.248;2023-04-09T09:21:10;102455.0;;;15.95;67.87
39295;BME280;52361;52.100;5.248;2023-04-09T09:22:48;102456.0;;;15.96;67.66
39295;BME280;52361;52.100;5.248;2023-04-09T09:24:25;102453.0;;;15.97;66.11
39295;BME280;52361;52.100;5.248;2023-04-09T09:27:46;102448.0;;;15.8;67.16
39295;BME280;52361;52.100;5.248;2023-04-09T09:29:24;102445.0;;;15.79;68.14
39295;BME280;52361;52.100;5.248;2023-04-09T09:31:07;102443.0;;;15.59;70.3
39295;BME280;52361;52.100;5.248;2023-04-09T09:32:44;102446.0;;;15.42;70.2
39295;BME280;52361;52.100;5.248;2023-04-09T09:35:59;102436.99999999999;;;15.66;70.24
39295;BME280;52361;52.100;5.248;2023-04-09T09:37:35;102433.0;;;15.8;70.86
39295;BME280;52361;52.100;5.248;2023-04-09T09:39:14;102430.0;;;16.18;68.36
39295;BME280;52361;52.100;5.248;2023-04-09T09:40:52;102430.0;;;16.38;66.52
39295;BME280;52361;52.100;5.248;2023-04-09T09:44:05;102439.00000000001;;;16.41;65.11
39295;BME280;52361;52.100;5.248;2023-04-09T09:45:43;102434.99999999999;;;16.71;64.45
39295;BME280;52361;52.100;5.248;2023-04-09T09:47:22;102432.0;;;16.53;64.3
39295;BME280;52361;52.100;5.248;2023-04-09T09:50:36;102434.99999999999;;;16.95;63.3
39295;BME280;52361;52.100;5.248;2023-04-09T09:52:13;102442.0;;;16.68;62.27
39295;BME280;52361;52.100;5.248;2023-04-09T09:53:50;102436.99999999999;;;16.82;62.96
39295;BME280;52361;52.100;5.248;2023-04-09T09:55:31;102438.00000000001;;;16.54;63.7
39295;BME280;52361;52.100;5.248;2023-04-09T09:58:51;102432.0;;;16.4;64.66
39295;BME280;52361;52.100;5.248;2023-04-09T10:00:31;102425.0;;;16.31;64.08
39295;BME280;52361;52.100;5.248;2023-04-09T10:02:17;102424.0;;;16.62;65.97
39295;BME280;52361;52.100;5.248;2023-04-09T10:03:55;102420.0;;;16.96;64.91
39295;BME280;52361;52.100;5.248;2023-04-09T10:07:10;102419.0;;;17.03;65.13
39295;BME280;52361;52.100;5.248;2023-04-09T10:08:48;102420.0;;;17.11;64.49
39295;BME280;52361;52.100;5.248;2023-04-09T10:10:26;102421.0;;;17.64;63.33
39295;BME280;52361;52.100;5.248;2023-04-09T10:13:45;102416.00000000001;;;18.0;60.58
39295;BME280;52361;52.100;5.248;2023-04-09T10:15:27;102414.00000000001;;;17.68;57.73
39295;BME280;52361;52.100;5.248;2023-04-09T10:17:04;102408.0;;;17.8;58.93
39295;BME280;52361;52.100;5.248;2023-04-09T10:18:41;102404.0;;;18.07;58.74
39295;BME280;52361;52.100;5.248;2023-04-09T10:22:04;102400.0;;;18.16;57.5
39295;BME280;52361;52.100;5.248;2023-04-09T10:23:44;102400.0;;;18.18;59.27
39295;BME280;52361;52.100;5.248;2023-04-09T10:25:23;102390.0;;;18.28;58.17
39295;BME280;52361;52.100;5.248;2023-04-09T10:27:08;102392.0;;;18.68;59.03
39295;BME280;52361;52.100;5.248;2023-04-09T10:30:30;102386.0;;;18.21;58.67
39295;BME280;52361;52.100;5.248;2023-04-09T10:32:06;102387.0;;;17.93;59.22
39295;BME280;52361;52.100;5.248;2023-04-09T10:33:44;102391.0;;;18.12;61.27
39295;BME280;52361;52.100;5.248;2023-04-09T10:35:24;102385.0;;;18.54;60.19
39295;BME280;52361;52.100;5.248;2023-04-09T10:38:38;102386.0;;;18.61;56.9
39295;BME280;52361;52.100;5.248;2023-04-09T10:40:18;102383.0;;;19.14;56.49
39295;BME280;52361;52.100;5.248;2023-04-09T10:41:55;102385.0;;;19.11;55.5
39295;BME280;52361;52.100;5.248;2023-04-09T10:43:33;102384.0;;;18.89;57.81
39295;BME280;52361;52.100;5.248;2023-04-09T10:46:51;102377.0;;;18.95;55.55
39295;BME280;52361;52.100;5.248;2023-04-09T10:48:31;102377.0;;;19.03;56.61